createdAt,value
2023-04-13T01:08:23.865Z,2.55
2023-04-13T01:14:57.303Z,2.17
2023-04-13T01:18:07.386Z,1.63
2023-04-13T01:21:15.203Z,3.05
2023-04-13T01:24:50.198Z,3.08
2023-04-13T01:28:16.776Z,3.65
2023-04-13T01:31:22.849Z,2.17
2023-04-13T01:34:28.207Z,1.95
2023-04-13T01:37:34.761Z,2.33
2023-04-13T01:40:41.819Z,3.42
2023-04-13T01:43:48.210Z,2.03
2023-04-13T01:47:14.057Z,3.15
2023-04-13T01:50:40.662Z,2.17
2023-04-13T01:54:20.626Z,1.25
2023-04-13T01:57:28.296Z,2.78
2023-04-13T02:00:38.155Z,2.38
2023-04-13T02:03:48.992Z,3.42
2023-04-13T02:06:53.707Z,2.17
2023-04-13T02:10:07.051Z,4.22
2023-04-13T02:13:12.192Z,1.33
2023-04-13T02:16:17.322Z,3.30
2023-04-13T02:19:24.689Z,2.60
2023-04-13T02:22:30.407Z,1.83
2023-04-13T02:25:35.643Z,2.85
2023-04-13T02:28:40.428Z,1.92
2023-04-13T02:31:45.463Z,2.70
2023-04-13T02:34:50.541Z,2.25
2023-04-13T02:37:56.096Z,2.38
2023-04-13T02:41:02.146Z,2.65
2023-04-13T02:44:08.500Z,2.22
2023-04-13T02:47:22.819Z,2.28
2023-04-13T02:50:28.064Z,3.08
2023-04-13T02:53:39.222Z,1.85
2023-04-13T02:56:45.628Z,1.90
2023-04-13T02:59:51.576Z,3.10
2023-04-13T03:02:58.690Z,3.72
2023-04-13T03:06:09.222Z,2.25
2023-04-13T03:09:25.363Z,1.55
2023-04-13T03:12:34.988Z,2.42
2023-04-13T03:15:41.319Z,2.10
2023-04-13T03:18:48.123Z,2.00
2023-04-13T03:21:52.923Z,1.90
2023-04-13T03:25:02.758Z,2.60
2023-04-13T03:28:13.064Z,2.28
2023-04-13T03:31:22.489Z,2.35
2023-04-13T03:34:30.890Z,1.42
2023-04-13T03:37:42.688Z,3.72
2023-04-13T03:41:01.548Z,4.43
2023-04-13T03:44:09.245Z,1.42
2023-04-13T03:47:16.699Z,1.95
2023-04-13T03:50:21.376Z,3.80
2023-04-13T03:53:29.309Z,2.30
2023-04-13T03:56:34.427Z,1.55
2023-04-13T03:59:39.490Z,1.23
2023-04-13T04:02:47.553Z,3.83
2023-04-13T04:06:00.506Z,3.13
2023-04-13T04:09:07.093Z,2.05
2023-04-13T04:12:17.671Z,2.00
2023-04-13T04:15:22.438Z,2.88
2023-04-13T04:18:33.018Z,5.22
2023-04-13T04:21:38.562Z,1.02
2023-04-13T04:24:47.383Z,2.40
2023-04-13T04:27:57.740Z,1.83
2023-04-13T04:31:05.121Z,1.67
2023-04-13T04:34:10.641Z,1.73
2023-04-13T04:37:21.416Z,2.13
2023-04-13T04:40:45.120Z,3.53
2023-04-13T04:43:56.690Z,2.60
2023-04-13T04:47:05.963Z,2.30
2023-04-13T04:50:29.456Z,2.13
2023-04-13T04:53:42.692Z,2.87
2023-04-13T04:56:48.259Z,1.58
2023-04-13T04:59:55.249Z,2.45
2023-04-13T05:03:02.191Z,4.13
2023-04-13T05:06:08.042Z,2.67
2023-04-13T05:09:14.833Z,3.42
2023-04-13T05:12:24.863Z,2.22
2023-04-13T05:15:29.760Z,1.50
2023-04-13T05:18:47.633Z,2.63
2023-04-13T05:22:18.312Z,3.95
2023-04-13T05:25:29.149Z,4.22
2023-04-13T05:28:39.158Z,2.42
2023-04-13T05:31:45.551Z,3.90
2023-04-13T05:34:52.078Z,5.45
2023-04-13T05:38:04.442Z,4.60
2023-04-13T05:41:10.823Z,5.07
2023-04-13T05:44:16.875Z,7.05
2023-04-13T05:47:24.118Z,4.25
2023-04-13T05:50:33.630Z,5.40
2023-04-13T05:53:39.233Z,4.18
2023-04-13T05:56:43.979Z,3.42
2023-04-13T05:59:50.279Z,6.47
2023-04-13T06:03:01.450Z,3.97
2023-04-13T06:06:06.714Z,5.68
2023-04-13T06:09:11.252Z,4.93
2023-04-13T06:12:16.017Z,4.15
2023-04-13T06:15:21.880Z,5.45
2023-04-13T06:18:27.433Z,4.78
2023-04-13T06:21:32.698Z,7.43
2023-04-13T06:24:37.642Z,5.45
2023-04-13T06:27:44.330Z,6.25
2023-04-13T06:30:48.736Z,4.45
2023-04-13T06:33:53.778Z,5.65
2023-04-13T06:37:05.337Z,5.97
2023-04-13T06:40:21.055Z,5.45
2023-04-13T06:43:34.805Z,5.45
2023-04-13T06:46:58.313Z,7.32
2023-04-13T06:50:07.071Z,6.90
2023-04-13T06:53:14.348Z,6.20
2023-04-13T06:56:19.589Z,4.47
2023-04-13T06:59:24.678Z,4.28
2023-04-13T07:02:30.727Z,4.85
2023-04-13T07:05:36.743Z,4.32
2023-04-13T07:08:47.729Z,3.33
2023-04-13T07:11:52.424Z,6.55
2023-04-13T07:14:57.308Z,3.53
2023-04-13T07:18:02.964Z,5.53
2023-04-13T07:21:07.968Z,3.80
2023-04-13T07:24:29.782Z,3.22
2023-04-13T07:27:36.979Z,3.95
2023-04-13T07:30:45.849Z,4.22
2023-04-13T07:33:52.943Z,3.65
2023-04-13T07:37:03.621Z,3.72
2023-04-13T07:40:09.737Z,4.53
2023-04-13T07:43:16.496Z,3.38
2023-04-13T07:46:27.277Z,4.07
2023-04-13T07:49:33.196Z,4.38
2023-04-13T07:52:38.636Z,4.95
2023-04-13T07:55:43.154Z,2.38
2023-04-13T07:58:47.866Z,3.90
2023-04-13T08:01:53.273Z,2.95
2023-04-13T08:04:59.972Z,6.22
2023-04-13T08:08:08.278Z,5.45
2023-04-13T08:11:13.023Z,5.35
2023-04-13T08:14:19.476Z,4.65
2023-04-13T08:17:27.206Z,3.80
2023-04-13T08:20:33.806Z,3.95
2023-04-13T08:23:42.873Z,5.38
2023-04-13T08:26:47.334Z,4.90
2023-04-13T08:30:01.699Z,3.40
2023-04-13T08:33:14.399Z,3.67
2023-04-13T08:36:19.340Z,5.05
2023-04-13T08:39:30.036Z,4.60
2023-04-13T08:42:35.377Z,4.50
2023-04-13T08:45:44.876Z,3.55
2023-04-13T08:48:54.409Z,7.32
2023-04-13T08:52:09.050Z,4.43
2023-04-13T08:55:15.797Z,7.80
2023-04-13T08:58:25.136Z,6.65
2023-04-13T09:01:32.704Z,4.90
2023-04-13T09:04:42.411Z,5.13
2023-04-13T09:07:56.905Z,7.38
2023-04-13T09:11:02.799Z,7.60
2023-04-13T09:14:08.977Z,5.18
2023-04-13T09:17:34.915Z,4.82
2023-04-13T09:20:40.665Z,4.13
2023-04-13T09:23:59.262Z,5.32
2023-04-13T09:27:03.985Z,8.95
2023-04-13T09:30:09.975Z,5.82
2023-04-13T09:33:16.979Z,6.82
2023-04-13T09:36:22.836Z,5.22
2023-04-13T09:39:29.209Z,12.02
2023-04-13T09:42:35.262Z,8.20
2023-04-13T09:45:46.518Z,7.32
2023-04-13T09:49:04.975Z,5.57
2023-04-13T09:52:23.566Z,4.88
2023-04-13T09:55:29.571Z,6.15
2023-04-13T09:58:47.465Z,6.30
2023-04-13T10:01:54.033Z,4.50
2023-04-13T10:05:00.209Z,3.88
2023-04-13T10:08:06.421Z,5.93
2023-04-13T10:11:14.905Z,3.38
2023-04-13T10:14:30.759Z,6.13
2023-04-13T10:17:54.548Z,3.85
2023-04-13T10:21:00.123Z,6.82
2023-04-13T10:24:12.117Z,8.10
2023-04-13T10:27:20.611Z,8.30
2023-04-13T10:30:26.898Z,5.45
2023-04-13T10:33:32.261Z,5.47
2023-04-13T10:36:42.326Z,5.82
2023-04-13T10:39:47.582Z,3.97
2023-04-13T10:42:53.397Z,6.45
2023-04-13T10:46:13.930Z,4.90
2023-04-13T10:49:18.960Z,7.85
2023-04-13T10:52:23.918Z,3.60
2023-04-13T10:55:29.323Z,4.63
2023-04-13T10:58:34.653Z,7.32
2023-04-13T11:01:41.318Z,7.65
2023-04-13T11:04:48.640Z,6.00
2023-04-13T11:07:55.805Z,7.30
2023-04-13T11:11:00.681Z,4.78
2023-04-13T11:14:05.565Z,6.10
2023-04-13T11:17:16.921Z,9.55
2023-04-13T11:20:39.735Z,8.77
2023-04-13T11:23:53.924Z,4.65
2023-04-13T11:26:58.822Z,5.20
2023-04-13T11:30:07.572Z,5.43
2023-04-13T11:33:12.358Z,5.28
2023-04-13T11:36:19.973Z,5.90
2023-04-13T11:39:24.507Z,4.32
2023-04-13T11:42:31.348Z,5.68
2023-04-13T11:45:39.328Z,9.82
2023-04-13T11:48:44.620Z,5.25
2023-04-13T11:51:49.762Z,6.55
2023-04-13T11:54:55.291Z,8.45
2023-04-13T11:58:09.950Z,7.20
2023-04-13T12:01:23.459Z,4.30
2023-04-13T12:04:41.205Z,5.55
2023-04-13T12:07:46.757Z,3.92
2023-04-13T12:17:41.189Z,8.00
2023-04-13T12:20:53.545Z,8.73
2023-04-13T12:24:01.009Z,5.75
2023-04-13T12:30:15.988Z,5.60
2023-04-13T12:33:21.352Z,5.55
2023-04-13T12:36:28.606Z,4.10
2023-04-13T12:39:33.341Z,6.35
2023-04-13T12:42:40.678Z,7.22
2023-04-13T12:45:45.390Z,6.40
2023-04-13T12:48:50.534Z,13.23
2023-04-13T12:51:55.306Z,5.22
2023-04-13T12:55:01.791Z,6.32
2023-04-13T12:58:06.507Z,5.68
2023-04-13T13:01:11.440Z,7.13
2023-04-13T13:04:16.021Z,5.10
2023-04-13T13:07:21.653Z,5.50
2023-04-13T13:10:30.069Z,4.97
2023-04-13T13:13:34.772Z,4.75
2023-04-13T13:16:39.495Z,4.53
2023-04-13T13:19:44.151Z,3.35
2023-04-13T13:22:48.513Z,5.07
2023-04-13T13:26:17.362Z,4.53
2023-04-13T13:32:23.842Z,5.40
2023-04-13T13:35:28.607Z,5.05
2023-04-13T13:38:35.697Z,5.88
2023-04-13T13:41:40.757Z,4.40
2023-04-13T13:44:44.967Z,4.40
2023-04-13T13:47:54.822Z,7.47
2023-04-13T13:51:14.271Z,6.82
2023-04-13T13:54:20.416Z,6.53
2023-04-13T13:57:25.395Z,6.25
2023-04-13T14:00:30.180Z,7.15
2023-04-13T14:03:35.406Z,5.25
2023-04-13T14:06:40.135Z,6.05
2023-04-13T14:09:45.596Z,6.30
2023-04-13T14:12:52.042Z,4.15
2023-04-13T14:15:56.897Z,4.03
2023-04-13T14:19:01.515Z,6.43
2023-04-13T14:22:06.207Z,6.03
2023-04-13T14:25:11.042Z,8.15
2023-04-13T14:28:17.671Z,6.13
2023-04-13T14:31:22.514Z,5.20
2023-04-13T14:34:26.890Z,5.90
2023-04-13T14:37:31.236Z,4.80
2023-04-13T14:40:36.279Z,5.75
2023-04-13T14:43:41.231Z,4.10
2023-04-13T14:46:45.697Z,4.75
2023-04-13T14:49:50.400Z,2.88
2023-04-13T14:52:54.989Z,6.10
2023-04-13T14:55:59.897Z,7.57
2023-04-13T14:59:04.556Z,9.75
2023-04-13T15:02:08.910Z,3.72
2023-04-13T15:05:13.662Z,4.07
2023-04-13T15:08:19.593Z,2.90
2023-04-13T15:11:24.302Z,2.90
2023-04-13T15:14:28.942Z,4.13
2023-04-13T15:17:33.707Z,4.55
2023-04-13T15:20:38.280Z,3.22
2023-04-13T15:23:43.169Z,6.72
2023-04-13T15:26:49.181Z,5.75
2023-04-13T15:30:00.038Z,2.92
2023-04-13T15:33:04.967Z,3.55
2023-04-13T15:36:16.137Z,2.78
2023-04-13T15:39:21.505Z,3.67
2023-04-13T15:42:26.295Z,3.30
2023-04-13T15:45:31.087Z,3.00
2023-04-13T15:48:35.858Z,5.43
2023-04-13T15:51:40.803Z,2.30
2023-04-13T15:54:45.978Z,3.00
2023-04-13T15:57:53.636Z,6.82
2023-04-13T16:01:10.692Z,2.25
2023-04-13T16:04:16.201Z,2.13
2023-04-13T16:07:21.677Z,2.88
2023-04-13T16:10:27.189Z,3.70
2023-04-13T16:13:48.908Z,5.53
2023-04-13T16:16:55.385Z,4.15
2023-04-13T16:20:14.599Z,2.67
2023-04-13T16:23:19.451Z,4.60
2023-04-13T16:26:27.274Z,4.10
2023-04-13T16:29:32.740Z,2.95
2023-04-13T16:32:37.496Z,3.22
2023-04-13T16:35:42.272Z,4.40
2023-04-13T16:38:46.933Z,2.33
2023-04-13T16:41:51.611Z,3.50
2023-04-13T16:44:56.327Z,4.57
2023-04-13T16:48:00.785Z,3.55
2023-04-13T16:51:05.704Z,2.25
2023-04-13T16:54:13.799Z,3.88
2023-04-13T16:57:18.536Z,2.53
2023-04-13T17:00:23.645Z,4.13
2023-04-13T17:03:28.483Z,3.20
2023-04-13T17:06:37.524Z,5.38
2023-04-13T17:09:42.672Z,3.17
2023-04-13T17:12:48.158Z,4.32
2023-04-13T17:15:52.711Z,3.40
2023-04-13T17:18:57.855Z,3.03
2023-04-13T17:22:02.764Z,2.38
2023-04-13T17:25:08.459Z,3.45
2023-04-13T17:28:12.998Z,1.67
2023-04-13T17:31:17.683Z,2.65
2023-04-13T17:34:22.678Z,3.20
2023-04-13T17:37:29.507Z,2.25
2023-04-13T17:40:35.889Z,2.42
2023-04-13T17:43:40.840Z,4.03
2023-04-13T17:46:45.803Z,1.05
2023-04-13T17:49:51.043Z,2.22
2023-04-13T17:52:56.344Z,1.48
2023-04-13T17:56:01.438Z,1.75
2023-04-13T17:59:05.966Z,1.85
2023-04-13T18:02:10.922Z,4.30
2023-04-13T18:05:18.181Z,1.45
2023-04-13T18:08:22.593Z,3.00
2023-04-13T18:11:27.815Z,2.83
2023-04-13T18:14:32.510Z,4.65
2023-04-13T18:17:38.711Z,1.98
2023-04-13T18:20:45.218Z,1.50
2023-04-13T18:23:49.702Z,2.97
2023-04-13T18:26:54.387Z,0.90
2023-04-13T18:29:59.444Z,2.72
2023-04-13T18:33:04.367Z,2.67
2023-04-13T18:36:09.214Z,3.22
2023-04-13T18:39:14.273Z,1.90
2023-04-13T18:42:19.011Z,2.40
2023-04-13T18:45:23.628Z,1.08
2023-04-13T18:48:28.843Z,1.52
2023-04-13T18:51:33.530Z,1.38
2023-04-13T18:54:38.466Z,2.92
2023-04-13T18:57:43.564Z,1.80
2023-04-13T19:00:48.437Z,2.20
2023-04-13T19:03:53.650Z,3.78
2023-04-13T19:06:58.792Z,3.03
2023-04-13T19:10:04.228Z,2.15
2023-04-13T19:13:09.425Z,2.67
2023-04-13T19:16:14.530Z,3.47
2023-04-13T19:19:19.074Z,1.02
2023-04-13T19:22:24.885Z,6.78
2023-04-13T19:25:29.460Z,3.13
2023-04-13T19:28:33.929Z,2.28
2023-04-13T19:31:44.553Z,2.28
2023-04-13T19:34:49.286Z,3.22
2023-04-13T19:37:54.555Z,2.05
2023-04-13T19:40:59.147Z,1.92
2023-04-13T19:44:05.360Z,2.60
2023-04-13T19:47:09.804Z,2.97
2023-04-13T19:50:15.476Z,2.63
2023-04-13T19:53:20.279Z,2.97
2023-04-13T19:56:25.618Z,1.90
2023-04-13T19:59:30.728Z,2.40
2023-04-13T20:02:35.809Z,2.00
2023-04-13T20:05:40.768Z,3.75
2023-04-13T20:08:45.665Z,3.45
2023-04-13T20:11:50.276Z,1.55
2023-04-13T20:14:54.862Z,2.05
2023-04-13T20:17:59.410Z,3.85
2023-04-13T20:21:05.483Z,3.30
2023-04-13T20:24:10.396Z,2.13
2023-04-13T20:27:15.069Z,4.22
2023-04-13T20:30:19.872Z,2.15
2023-04-13T20:33:24.613Z,2.15
2023-04-13T20:36:30.822Z,2.08
2023-04-13T20:39:38.032Z,3.90
2023-04-13T20:42:43.006Z,2.22
2023-04-13T20:45:47.439Z,4.00
2023-04-13T20:48:52.572Z,3.58
2023-04-13T20:51:58.041Z,2.20
2023-04-13T20:55:03.219Z,3.22
2023-04-13T20:58:08.235Z,1.50
2023-04-13T21:01:13.166Z,2.28
2023-04-13T21:04:17.838Z,2.97
2023-04-13T21:07:22.770Z,2.78
2023-04-13T21:10:27.256Z,2.80
2023-04-13T21:13:32.596Z,3.63
2023-04-13T21:16:37.219Z,5.35
2023-04-13T21:19:41.874Z,3.60
2023-04-13T21:22:46.455Z,1.75
2023-04-13T21:25:50.874Z,3.80
2023-04-13T21:28:55.556Z,3.65
2023-04-13T21:32:01.446Z,1.52
2023-04-13T21:35:06.944Z,3.85
2023-04-13T21:38:11.297Z,1.65
2023-04-13T21:41:17.849Z,2.92
2023-04-13T21:44:29.713Z,2.25
2023-04-13T21:47:34.934Z,1.83
2023-04-13T21:50:39.369Z,2.25
2023-04-13T21:53:43.715Z,4.97
2023-04-13T21:56:49.081Z,3.13
2023-04-13T21:59:56.733Z,1.67
2023-04-13T22:03:01.772Z,2.45
2023-04-13T22:06:25.822Z,1.15
2023-04-13T22:09:53.936Z,2.83
2023-04-13T22:13:17.261Z,2.80
2023-04-13T22:16:21.846Z,1.58
2023-04-13T22:19:26.415Z,2.30
2023-04-13T22:22:31.140Z,2.83
2023-04-13T22:25:36.045Z,2.45
2023-04-13T22:28:40.807Z,1.42
2023-04-13T22:31:45.850Z,2.47
2023-04-13T22:34:50.776Z,2.88
2023-04-13T22:37:55.453Z,4.47
2023-04-13T22:41:05.009Z,4.75
2023-04-13T22:44:09.508Z,2.53
2023-04-13T22:47:14.074Z,1.35
2023-04-13T22:50:18.578Z,3.67
2023-04-13T22:53:23.352Z,2.45
2023-04-13T22:56:28.135Z,2.05
2023-04-13T22:59:32.495Z,1.63
2023-04-13T23:02:37.405Z,2.13
2023-04-13T23:05:42.191Z,4.68
2023-04-13T23:08:47.504Z,3.83
2023-04-13T23:11:52.190Z,3.95
2023-04-13T23:14:56.859Z,3.45
2023-04-13T23:18:02.690Z,3.78
2023-04-13T23:21:12.352Z,3.13
2023-04-13T23:24:16.704Z,4.05
2023-04-13T23:27:21.089Z,3.67
2023-04-13T23:30:25.600Z,3.30
2023-04-13T23:33:30.361Z,4.38
2023-04-13T23:36:35.018Z,1.83
2023-04-13T23:39:39.440Z,2.30
2023-04-13T23:42:43.755Z,2.03
2023-04-13T23:45:52.278Z,1.42
2023-04-13T23:48:57.015Z,2.20
2023-04-13T23:52:02.738Z,2.90
2023-04-13T23:55:08.244Z,1.63
2023-04-13T23:58:13.069Z,2.03
